Time;durP1;ratioP1;P1;durP2;ratioP2;P2;SDS_P1;SDS_P2;PMS_P1;PMS_P2;Temp;Humidity;BMP_temperature;BMP_pressure;BME280_temperature;BME280_humidity;BME280_pressure;Samples;Min_cycle;Max_cycle;Signal;HPM_P1;HPM_P2
2023/08/31 00:00:20;;;;;;;0.50;0.50;;;;;;;;;;5113055;28;20201;-92
2023/08/31 00:02:48;;;;;;;0.40;0.40;;;;;;;;;;5112213;28;20264;-90
2023/08/31 00:05:20;;;;;;;0.40;0.40;;;;;;;;;;5113205;28;20202;-90
2023/08/31 00:07:48;;;;;;;0.40;0.40;;;;;;;;;;5116117;28;20527;-90
2023/08/31 00:10:20;;;;;;;0.40;0.40;;;;;;;;;;5116976;28;20227;-90
2023/08/31 00:12:49;;;;;;;0.40;0.40;;;;;;;;;;5116584;28;20209;-90
2023/08/31 00:15:17;;;;;;;0.40;0.40;;;;;;;;;;5116282;28;20202;-90
2023/08/31 00:17:46;;;;;;;0.40;0.40;;;;;;;;;;5116280;28;20238;-90
2023/08/31 00:20:17;;;;;;;0.40;0.40;;;;;;;;;;5115768;28;20258;-90
2023/08/31 00:22:48;;;;;;;0.40;0.40;;;;;;;;;;5115700;28;20284;-90
2023/08/31 00:25:19;;;;;;;0.40;0.40;;;;;;;;;;5115851;28;20243;-89
2023/08/31 00:27:48;;;;;;;0.50;0.50;;;;;;;;;;5116477;28;20198;-91
2023/08/31 00:30:16;;;;;;;0.40;0.40;;;;;;;;;;5115905;28;20201;-92
2023/08/31 00:32:48;;;;;;;0.40;0.40;;;;;;;;;;5115441;28;20260;-92
2023/08/31 00:35:17;;;;;;;0.40;0.40;;;;;;;;;;5115715;28;20237;-91
2023/08/31 00:37:45;;;;;;;0.50;0.50;;;;;;;;;;5115035;28;20217;-88
2023/08/31 00:40:15;;;;;;;0.43;0.43;;;;;;;;;;5115060;28;20303;-88
2023/08/31 00:42:44;;;;;;;0.40;0.40;;;;;;;;;;5115132;28;20227;-88
2023/08/31 00:45:13;;;;;;;0.50;0.50;;;;;;;;;;5114405;28;20188;-88
2023/08/31 00:47:41;;;;;;;0.50;0.50;;;;;;;;;;5115068;28;20220;-87
2023/08/31 00:50:11;;;;;;;0.50;0.50;;;;;;;;;;5114956;28;20204;-87
2023/08/31 00:52:39;;;;;;;0.50;0.50;;;;;;;;;;5114775;28;20198;-87
2023/08/31 00:55:08;;;;;;;0.50;0.50;;;;;;;;;;5113694;28;20208;-87
2023/08/31 00:57:38;;;;;;;0.40;0.40;;;;;;;;;;5114542;28;20197;-87
2023/08/31 01:00:08;;;;;;;0.50;0.50;;;;;;;;;;5114817;28;20228;-87
2023/08/31 01:02:41;;;;;;;0.40;0.40;;;;;;;;;;5113683;28;20255;-88
2023/08/31 01:05:23;;;;;;;0.40;0.40;;;;;;;;;;5114353;28;20277;-88
2023/08/31 01:07:54;;;;;;;0.50;0.50;;;;;;;;;;5114264;28;20219;-87
2023/08/31 01:10:26;;;;;;;0.50;0.50;;;;;;;;;;5114291;28;20261;-88
2023/08/31 01:13:00;;;;;;;0.40;0.40;;;;;;;;;;5113932;28;20205;-87
2023/08/31 01:15:32;;;;;;;0.50;0.50;;;;;;;;;;5114371;28;20197;-88
2023/08/31 01:18:02;;;;;;;0.40;0.40;;;;;;;;;;5114450;28;20188;-88
2023/08/31 01:20:34;;;;;;;0.40;0.40;;;;;;;;;;5113830;28;20208;-87
2023/08/31 01:23:04;;;;;;;0.40;0.40;;;;;;;;;;5113539;28;20206;-88
2023/08/31 01:25:35;;;;;;;0.40;0.40;;;;;;;;;;5113824;28;20200;-87
2023/08/31 01:28:04;;;;;;;0.40;0.40;;;;;;;;;;5113880;28;20242;-88
2023/08/31 01:30:32;;;;;;;0.40;0.40;;;;;;;;;;5112997;28;20235;-88
2023/08/31 01:33:02;;;;;;;0.40;0.40;;;;;;;;;;5113437;28;20195;-87
2023/08/31 01:35:34;;;;;;;0.40;0.40;;;;;;;;;;5113796;28;20216;-87
2023/08/31 01:38:04;;;;;;;0.40;0.40;;;;;;;;;;5113556;28;20244;-87
2023/08/31 01:40:37;;;;;;;0.40;0.40;;;;;;;;;;5113385;28;20224;-88
2023/08/31 01:43:06;;;;;;;0.40;0.40;;;;;;;;;;5113382;28;20234;-88
2023/08/31 01:45:35;;;;;;;0.40;0.40;;;;;;;;;;5113519;28;20202;-87
2023/08/31 01:48:04;;;;;;;0.40;0.40;;;;;;;;;;5112973;28;20217;-87
2023/08/31 01:50:32;;;;;;;0.40;0.40;;;;;;;;;;5113474;28;20212;-87
2023/08/31 01:53:01;;;;;;;0.40;0.40;;;;;;;;;;5112954;28;20198;-87
2023/08/31 01:55:29;;;;;;;0.40;0.40;;;;;;;;;;5113284;28;20255;-87
2023/08/31 01:58:00;;;;;;;0.40;0.40;;;;;;;;;;5113854;28;20196;-90
2023/08/31 02:00:34;;;;;;;0.40;0.40;;;;;;;;;;5114119;28;20196;-89
2023/08/31 02:03:03;;;;;;;0.40;0.40;;;;;;;;;;5113312;28;20231;-89
2023/08/31 02:05:32;;;;;;;0.40;0.40;;;;;;;;;;5113336;28;20205;-89
2023/08/31 02:08:00;;;;;;;0.40;0.40;;;;;;;;;;5113198;28;20222;-89
2023/08/31 02:10:29;;;;;;;0.40;0.40;;;;;;;;;;5113553;28;20197;-89
2023/08/31 02:13:00;;;;;;;0.40;0.40;;;;;;;;;;5113380;28;20195;-89
2023/08/31 02:15:28;;;;;;;0.40;0.40;;;;;;;;;;5113280;28;20202;-89
2023/08/31 02:17:57;;;;;;;0.40;0.40;;;;;;;;;;5113367;28;20206;-87
2023/08/31 02:20:26;;;;;;;0.40;0.40;;;;;;;;;;5113024;28;20265;-87
2023/08/31 02:22:55;;;;;;;0.40;0.40;;;;;;;;;;5112767;28;20198;-88
2023/08/31 02:25:27;;;;;;;0.40;0.40;;;;;;;;;;5112882;28;20192;-89
2023/08/31 02:27:56;;;;;;;0.40;0.40;;;;;;;;;;5113094;28;20214;-89
2023/08/31 02:30:26;;;;;;;0.40;0.40;;;;;;;;;;5112976;28;20205;-90
2023/08/31 02:32:54;;;;;;;0.40;0.40;;;;;;;;;;5112403;28;20205;-89
2023/08/31 02:35:23;;;;;;;0.40;0.40;;;;;;;;;;5112573;28;20200;-89
2023/08/31 02:37:51;;;;;;;0.40;0.40;;;;;;;;;;5112924;28;20220;-89
2023/08/31 02:40:20;;;;;;;0.40;0.40;;;;;;;;;;5112315;28;20214;-88
2023/08/31 02:42:52;;;;;;;0.40;0.40;;;;;;;;;;5113055;28;20264;-89
2023/08/31 02:45:20;;;;;;;0.40;0.40;;;;;;;;;;5113135;28;20205;-89
2023/08/31 02:47:50;;;;;;;0.40;0.40;;;;;;;;;;5112863;28;20222;-89
2023/08/31 02:50:19;;;;;;;0.40;0.40;;;;;;;;;;5112072;28;20201;-89
2023/08/31 02:52:48;;;;;;;1.83;1.83;;;;;;;;;;5112625;28;20198;-89
2023/08/31 02:55:19;;;;;;;0.40;0.40;;;;;;;;;;5112197;28;20196;-89
2023/08/31 02:57:48;;;;;;;0.40;0.40;;;;;;;;;;5112131;28;20204;-87
2023/08/31 03:00:21;;;;;;;0.40;0.40;;;;;;;;;;5112226;28;20201;-88
2023/08/31 03:02:51;;;;;;;0.40;0.40;;;;;;;;;;5112661;28;20251;-88
2023/08/31 03:05:21;;;;;;;0.40;0.40;;;;;;;;;;5112714;28;20206;-88
2023/08/31 03:07:49;;;;;;;0.40;0.40;;;;;;;;;;5112254;28;20221;-88
2023/08/31 03:10:18;;;;;;;0.40;0.40;;;;;;;;;;5112687;28;20201;-88
2023/08/31 03:12:46;;;;;;;0.30;0.30;;;;;;;;;;5112918;28;20261;-88
2023/08/31 03:15:17;;;;;;;0.40;0.40;;;;;;;;;;5112217;28;20208;-88
2023/08/31 03:17:45;;;;;;;0.40;0.40;;;;;;;;;;5112511;28;20208;-88
2023/08/31 03:20:15;;;;;;;0.40;0.40;;;;;;;;;;5113066;28;20205;-88
2023/08/31 03:22:44;;;;;;;0.40;0.40;;;;;;;;;;5112681;28;20209;-89
2023/08/31 03:25:13;;;;;;;0.40;0.40;;;;;;;;;;5112377;28;20295;-88
2023/08/31 03:27:42;;;;;;;0.40;0.40;;;;;;;;;;5113443;28;20221;-88
2023/08/31 03:30:11;;;;;;;0.40;0.40;;;;;;;;;;5112831;28;20205;-88
2023/08/31 03:32:40;;;;;;;0.40;0.40;;;;;;;;;;5112881;28;20205;-87
2023/08/31 03:35:08;;;;;;;0.40;0.40;;;;;;;;;;5112129;28;20244;-88
2023/08/31 03:37:38;;;;;;;0.40;0.40;;;;;;;;;;5112651;28;20292;-88
2023/08/31 03:40:07;;;;;;;0.40;0.40;;;;;;;;;;5112231;28;20285;-87
2023/08/31 03:42:36;;;;;;;0.40;0.40;;;;;;;;;;5114622;28;20198;-87
2023/08/31 03:45:05;;;;;;;0.40;0.40;;;;;;;;;;5115721;28;20201;-87
2023/08/31 03:47:33;;;;;;;0.40;0.40;;;;;;;;;;5115625;28;20273;-87
2023/08/31 03:50:02;;;;;;;0.40;0.40;;;;;;;;;;5116359;28;20200;-87
2023/08/31 03:52:30;;;;;;;0.40;0.40;;;;;;;;;;5116374;28;20205;-87
2023/08/31 03:55:00;;;;;;;0.40;0.40;;;;;;;;;;5117098;28;20201;-87
2023/08/31 03:57:29;;;;;;;0.40;0.40;;;;;;;;;;5116505;28;20205;-87
2023/08/31 03:59:57;;;;;;;0.40;0.40;;;;;;;;;;5115550;28;20208;-86
2023/08/31 04:02:25;;;;;;;0.40;0.40;;;;;;;;;;5115262;28;20224;-86
2023/08/31 04:04:54;;;;;;;0.40;0.40;;;;;;;;;;5115031;28;20228;-86
2023/08/31 04:07:22;;;;;;;0.40;0.40;;;;;;;;;;5115094;28;20217;-86
2023/08/31 04:09:51;;;;;;;0.40;0.40;;;;;;;;;;5114955;28;20201;-85
2023/08/31 04:12:21;;;;;;;0.40;0.40;;;;;;;;;;5115481;28;20284;-85
2023/08/31 04:14:49;;;;;;;0.40;0.40;;;;;;;;;;5115315;28;20208;-85
2023/08/31 04:17:18;;;;;;;0.40;0.40;;;;;;;;;;5114830;28;20203;-85
2023/08/31 04:19:46;;;;;;;0.40;0.40;;;;;;;;;;5115174;28;20197;-85
2023/08/31 04:22:15;;;;;;;0.40;0.40;;;;;;;;;;5115498;27;20249;-85
2023/08/31 04:24:43;;;;;;;0.40;0.40;;;;;;;;;;5115619;28;20202;-85
2023/08/31 04:27:12;;;;;;;0.40;0.40;;;;;;;;;;5114647;28;20295;-85
2023/08/31 04:29:42;;;;;;;0.40;0.40;;;;;;;;;;5114788;28;20221;-84
2023/08/31 04:32:10;;;;;;;0.40;0.40;;;;;;;;;;5115034;28;20204;-85
2023/08/31 04:34:39;;;;;;;0.40;0.40;;;;;;;;;;5114354;28;20210;-85
2023/08/31 04:37:07;;;;;;;0.40;0.40;;;;;;;;;;5114389;28;20262;-85
2023/08/31 04:39:36;;;;;;;0.40;0.40;;;;;;;;;;5115122;28;20206;-85
2023/08/31 04:42:04;;;;;;;0.40;0.40;;;;;;;;;;5115072;28;20201;-85
2023/08/31 04:44:33;;;;;;;0.40;0.40;;;;;;;;;;5114415;28;20196;-85
2023/08/31 04:47:03;;;;;;;0.40;0.40;;;;;;;;;;5114928;28;20200;-85
2023/08/31 04:49:31;;;;;;;0.40;0.40;;;;;;;;;;5114471;28;20229;-85
2023/08/31 04:52:00;;;;;;;0.40;0.40;;;;;;;;;;5114615;28;20237;-85
2023/08/31 04:54:28;;;;;;;0.40;0.40;;;;;;;;;;5114195;28;20231;-85
2023/08/31 04:56:56;;;;;;;0.40;0.40;;;;;;;;;;5114108;28;20199;-86
2023/08/31 04:59:25;;;;;;;0.40;0.40;;;;;;;;;;5114639;28;20231;-86
2023/08/31 05:01:53;;;;;;;0.40;0.40;;;;;;;;;;5114457;28;20203;-86
2023/08/31 05:04:24;;;;;;;0.40;0.40;;;;;;;;;;5113756;28;20242;-86
2023/08/31 05:06:52;;;;;;;0.40;0.40;;;;;;;;;;5114109;28;20194;-86
2023/08/31 05:09:21;;;;;;;0.40;0.40;;;;;;;;;;5114294;28;20217;-86
2023/08/31 05:11:49;;;;;;;0.40;0.40;;;;;;;;;;5114390;28;20213;-86
2023/08/31 05:14:18;;;;;;;0.30;0.30;;;;;;;;;;5114270;28;20210;-86
2023/08/31 05:16:47;;;;;;;0.40;0.40;;;;;;;;;;5114254;28;20216;-85
2023/08/31 05:19:17;;;;;;;0.40;0.40;;;;;;;;;;5114140;28;20236;-86
2023/08/31 05:21:47;;;;;;;0.40;0.40;;;;;;;;;;5113745;28;20205;-85
2023/08/31 05:24:16;;;;;;;0.40;0.40;;;;;;;;;;5113892;28;20202;-85
2023/08/31 05:26:45;;;;;;;0.40;0.40;;;;;;;;;;5113924;28;20206;-85
2023/08/31 05:29:14;;;;;;;0.40;0.40;;;;;;;;;;5113314;28;20221;-85
2023/08/31 05:31:42;;;;;;;0.40;0.40;;;;;;;;;;5113517;28;20208;-85
2023/08/31 05:34:11;;;;;;;0.40;0.40;;;;;;;;;;5113608;28;20203;-85
2023/08/31 05:36:39;;;;;;;0.40;0.40;;;;;;;;;;5113596;28;20234;-85
2023/08/31 05:39:10;;;;;;;0.40;0.40;;;;;;;;;;5113621;28;20195;-84
2023/08/31 05:41:41;;;;;;;0.40;0.40;;;;;;;;;;5113496;28;20207;-85
2023/08/31 05:44:12;;;;;;;0.40;0.40;;;;;;;;;;5113187;28;20276;-85
2023/08/31 05:46:41;;;;;;;0.40;0.40;;;;;;;;;;5113821;28;20203;-85
2023/08/31 05:49:09;;;;;;;0.37;0.37;;;;;;;;;;5114074;28;20215;-86
2023/08/31 05:51:38;;;;;;;0.40;0.40;;;;;;;;;;5114293;28;20290;-85
2023/08/31 05:54:10;;;;;;;0.40;0.40;;;;;;;;;;5114454;28;20210;-85
2023/08/31 05:56:40;;;;;;;0.40;0.40;;;;;;;;;;5113768;28;20189;-85
2023/08/31 05:59:09;;;;;;;0.40;0.40;;;;;;;;;;5113692;28;20209;-85
2023/08/31 06:01:37;;;;;;;0.40;0.40;;;;;;;;;;5113851;28;20215;-85
2023/08/31 06:04:06;;;;;;;0.30;0.30;;;;;;;;;;5111551;28;20317;-85
2023/08/31 06:06:35;;;;;;;0.30;0.30;;;;;;;;;;5112737;28;20290;-85
2023/08/31 06:09:03;;;;;;;0.40;0.40;;;;;;;;;;5113254;28;20226;-84
2023/08/31 06:11:32;;;;;;;0.30;0.30;;;;;;;;;;5112854;28;20196;-84
2023/08/31 06:14:01;;;;;;;0.30;0.30;;;;;;;;;;5112352;28;20195;-84
2023/08/31 06:16:30;;;;;;;0.30;0.30;;;;;;;;;;5113560;28;20211;-85
2023/08/31 06:18:59;;;;;;;0.30;0.30;;;;;;;;;;5113809;28;20191;-85
2023/08/31 06:21:27;;;;;;;0.30;0.30;;;;;;;;;;5112949;28;20200;-85
2023/08/31 06:23:55;;;;;;;0.30;0.30;;;;;;;;;;5113488;28;20204;-84
2023/08/31 06:26:24;;;;;;;0.30;0.30;;;;;;;;;;5113498;28;20207;-85
2023/08/31 06:28:53;;;;;;;0.30;0.30;;;;;;;;;;5113234;28;20205;-84
2023/08/31 06:31:23;;;;;;;0.30;0.30;;;;;;;;;;5112713;28;20202;-84
2023/08/31 06:33:51;;;;;;;0.30;0.30;;;;;;;;;;5113151;28;20195;-84
2023/08/31 06:36:20;;;;;;;0.30;0.30;;;;;;;;;;5113243;28;20231;-85
2023/08/31 06:38:48;;;;;;;0.30;0.30;;;;;;;;;;5112087;28;20203;-84
2023/08/31 06:41:16;;;;;;;0.30;0.30;;;;;;;;;;5111487;28;20215;-84
2023/08/31 06:43:45;;;;;;;0.30;0.30;;;;;;;;;;5112346;28;20203;-84
2023/08/31 06:46:14;;;;;;;0.30;0.30;;;;;;;;;;5113181;28;20199;-85
2023/08/31 06:48:53;;;;;;;0.40;0.40;;;;;;;;;;5112963;28;20290;-85
2023/08/31 06:51:22;;;;;;;0.40;0.40;;;;;;;;;;5113252;28;20299;-85
2023/08/31 06:53:52;;;;;;;0.30;0.30;;;;;;;;;;5113386;28;20203;-85
2023/08/31 06:56:21;;;;;;;0.30;0.30;;;;;;;;;;5113405;28;20310;-85
2023/08/31 06:58:49;;;;;;;0.40;0.40;;;;;;;;;;5112485;28;20377;-85
2023/08/31 07:01:18;;;;;;;0.30;0.30;;;;;;;;;;5112951;28;20204;-85
2023/08/31 07:03:47;;;;;;;0.33;0.33;;;;;;;;;;5112499;28;20239;-85
2023/08/31 07:06:17;;;;;;;0.30;0.30;;;;;;;;;;5112789;28;20244;-84
2023/08/31 07:08:47;;;;;;;0.33;0.33;;;;;;;;;;5112573;28;20267;-85
2023/08/31 07:11:16;;;;;;;0.30;0.30;;;;;;;;;;5113044;28;20264;-84
2023/08/31 07:13:44;;;;;;;0.30;0.30;;;;;;;;;;5113340;28;20203;-85
2023/08/31 07:16:13;;;;;;;0.30;0.30;;;;;;;;;;5115142;28;20192;-85
2023/08/31 07:18:41;;;;;;;0.30;0.30;;;;;;;;;;5117345;28;20200;-85
2023/08/31 07:21:10;;;;;;;0.30;0.30;;;;;;;;;;5117700;28;20200;-85
2023/08/31 07:23:43;;;;;;;0.30;0.30;;;;;;;;;;5117124;28;20200;-85
2023/08/31 07:26:11;;;;;;;0.30;0.30;;;;;;;;;;5117329;28;20291;-85
2023/08/31 07:28:40;;;;;;;0.30;0.30;;;;;;;;;;5116607;28;20207;-81
2023/08/31 07:31:08;;;;;;;0.30;0.30;;;;;;;;;;5116782;28;20221;-82
2023/08/31 07:33:37;;;;;;;0.30;0.30;;;;;;;;;;5116967;28;20203;-85
2023/08/31 07:36:06;;;;;;;0.40;0.40;;;;;;;;;;5116904;28;20315;-85
2023/08/31 07:38:35;;;;;;;0.30;0.30;;;;;;;;;;5116914;28;20235;-85
2023/08/31 07:41:05;;;;;;;0.33;0.33;;;;;;;;;;5116939;28;20282;-85
2023/08/31 07:43:33;;;;;;;0.30;0.30;;;;;;;;;;5115880;28;20204;-85
2023/08/31 07:46:02;;;;;;;0.30;0.30;;;;;;;;;;5116850;28;20212;-85
2023/08/31 07:48:31;;;;;;;0.30;0.30;;;;;;;;;;5116369;27;20240;-85
2023/08/31 07:50:59;;;;;;;0.30;0.30;;;;;;;;;;5117022;28;20220;-85
2023/08/31 07:53:28;;;;;;;0.30;0.30;;;;;;;;;;5116984;28;20202;-85
2023/08/31 07:55:58;;;;;;;0.30;0.30;;;;;;;;;;5116884;28;20257;-83
2023/08/31 07:58:28;;;;;;;0.30;0.30;;;;;;;;;;5115596;28;20204;-85
2023/08/31 08:00:56;;;;;;;0.30;0.30;;;;;;;;;;5102672;28;20197;-85
2023/08/31 08:03:26;;;;;;;0.30;0.30;;;;;;;;;;5109456;28;20240;-85
2023/08/31 08:05:55;;;;;;;0.30;0.30;;;;;;;;;;5107798;28;20204;-86
2023/08/31 08:08:23;;;;;;;0.30;0.30;;;;;;;;;;5100897;28;20289;-85
2023/08/31 08:10:53;;;;;;;0.30;0.30;;;;;;;;;;5111876;28;20248;-86
2023/08/31 08:13:22;;;;;;;0.30;0.30;;;;;;;;;;5102649;28;20271;-86
2023/08/31 08:15:52;;;;;;;0.30;0.30;;;;;;;;;;5109776;28;20293;-87
2023/08/31 08:18:26;;;;;;;0.30;0.30;;;;;;;;;;5114009;28;20237;-87
2023/08/31 08:20:54;;;;;;;0.30;0.30;;;;;;;;;;5111326;28;20206;-87
2023/08/31 08:23:23;;;;;;;0.30;0.30;;;;;;;;;;5115779;28;20205;-86
2023/08/31 08:25:52;;;;;;;0.30;0.30;;;;;;;;;;5115746;28;20201;-87
2023/08/31 08:28:20;;;;;;;0.30;0.30;;;;;;;;;;5115688;28;20232;-87
2023/08/31 08:30:50;;;;;;;0.40;0.40;;;;;;;;;;5115853;28;20277;-87
2023/08/31 08:33:20;;;;;;;0.30;0.30;;;;;;;;;;5116051;28;20237;-87
2023/08/31 08:35:50;;;;;;;0.30;0.30;;;;;;;;;;5114755;28;20279;-87
2023/08/31 08:38:18;;;;;;;0.30;0.30;;;;;;;;;;5114939;28;20239;-87
2023/08/31 08:40:47;;;;;;;0.40;0.40;;;;;;;;;;5112452;28;20200;-87
2023/08/31 08:43:16;;;;;;;0.30;0.30;;;;;;;;;;5115629;28;20210;-87
2023/08/31 08:45:47;;;;;;;0.40;0.40;;;;;;;;;;5115579;28;20202;-86
2023/08/31 08:48:19;;;;;;;0.30;0.30;;;;;;;;;;5115383;28;20211;-87
2023/08/31 08:50:50;;;;;;;0.30;0.30;;;;;;;;;;5115364;28;20210;-87
2023/08/31 08:53:18;;;;;;;0.30;0.30;;;;;;;;;;5115700;28;20210;-87
2023/08/31 08:55:47;;;;;;;0.30;0.30;;;;;;;;;;5115428;28;20200;-87
2023/08/31 08:58:17;;;;;;;0.30;0.30;;;;;;;;;;5114987;28;20211;-87
2023/08/31 09:00:47;;;;;;;0.30;0.30;;;;;;;;;;5104686;28;20257;-89
2023/08/31 09:03:16;;;;;;;0.30;0.30;;;;;;;;;;5112795;28;20264;-87
2023/08/31 09:05:45;;;;;;;0.93;0.83;;;;;;;;;;5101441;28;20207;-87
2023/08/31 09:08:15;;;;;;;1.87;1.20;;;;;;;;;;5098724;28;20209;-87
2023/08/31 09:10:45;;;;;;;1.30;1.07;;;;;;;;;;5094830;28;20224;-86
2023/08/31 09:13:16;;;;;;;0.93;0.83;;;;;;;;;;5095205;28;20198;-86
2023/08/31 09:15:47;;;;;;;0.53;0.53;;;;;;;;;;5095353;28;20262;-87
2023/08/31 09:18:17;;;;;;;2.67;1.37;;;;;;;;;;5094789;28;20199;-87
2023/08/31 09:20:46;;;;;;;3.67;1.27;;;;;;;;;;5094389;28;20201;-86
2023/08/31 09:23:17;;;;;;;3.23;1.63;;;;;;;;;;5094318;28;20233;-86
2023/08/31 09:25:48;;;;;;;0.70;0.70;;;;;;;;;;5093398;28;20197;-86
2023/08/31 09:28:17;;;;;;;3.00;1.27;;;;;;;;;;5094452;28;20197;-86
2023/08/31 09:30:47;;;;;;;4.43;1.67;;;;;;;;;;5094477;28;20243;-87
2023/08/31 09:33:20;;;;;;;2.47;1.50;;;;;;;;;;5094250;28;20211;-87
2023/08/31 09:35:52;;;;;;;5.43;1.10;;;;;;;;;;5094321;28;20200;-87
2023/08/31 09:38:22;;;;;;;6.07;1.93;;;;;;;;;;5094354;28;20197;-86
2023/08/31 09:40:50;;;;;;;2.37;1.47;;;;;;;;;;5094317;28;20204;-85
2023/08/31 09:43:22;;;;;;;1.40;1.30;;;;;;;;;;5091656;28;20200;-87
2023/08/31 09:45:51;;;;;;;4.63;1.40;;;;;;;;;;5093166;28;20201;-86
2023/08/31 09:48:21;;;;;;;3.27;1.50;;;;;;;;;;5093086;28;20205;-87
2023/08/31 09:50:50;;;;;;;2.67;1.27;;;;;;;;;;5093573;28;20213;-87
2023/08/31 09:53:21;;;;;;;10.27;2.30;;;;;;;;;;5093810;28;20236;-87
2023/08/31 09:55:52;;;;;;;1.03;0.57;;;;;;;;;;5093532;28;20206;-86
2023/08/31 09:58:22;;;;;;;3.50;0.90;;;;;;;;;;5093901;28;20197;-86
2023/08/31 10:00:51;;;;;;;1.57;0.90;;;;;;;;;;5093324;28;20253;-83
2023/08/31 10:03:21;;;;;;;1.20;1.00;;;;;;;;;;5092678;28;20330;-84
2023/08/31 10:05:52;;;;;;;2.77;1.30;;;;;;;;;;5092373;28;20193;-84
2023/08/31 10:08:23;;;;;;;1.73;0.70;;;;;;;;;;5100970;28;20208;-83
2023/08/31 10:10:54;;;;;;;1.57;1.00;;;;;;;;;;5103151;28;20188;-86
2023/08/31 10:13:23;;;;;;;1.60;0.70;;;;;;;;;;5102492;28;20205;-86
2023/08/31 10:15:54;;;;;;;3.00;1.03;;;;;;;;;;5102322;28;20205;-87
2023/08/31 10:18:23;;;;;;;1.03;0.70;;;;;;;;;;5096173;28;20212;-87
2023/08/31 10:20:51;;;;;;;7.23;1.23;;;;;;;;;;5113447;28;20249;-86
2023/08/31 10:23:20;;;;;;;1.73;1.10;;;;;;;;;;5099828;28;20231;-86
2023/08/31 10:26:08;;;;;;;2.03;0.83;;;;;;;;;;5102515;28;20219;-86
2023/08/31 10:28:43;;;;;;;2.77;1.33;;;;;;;;;;5093867;28;20209;-86
2023/08/31 10:31:30;;;;;;;1.87;1.43;;;;;;;;;;5092822;28;20328;-86
2023/08/31 10:34:00;;;;;;;3.63;1.23;;;;;;;;;;5093297;28;20220;-86
2023/08/31 10:36:36;;;;;;;2.33;1.47;;;;;;;;;;5092735;28;20246;-86
2023/08/31 10:39:12;;;;;;;3.60;1.47;;;;;;;;;;5092655;28;20209;-86
2023/08/31 10:41:42;;;;;;;1.47;0.83;;;;;;;;;;5092988;28;20201;-85
2023/08/31 10:44:20;;;;;;;2.20;0.73;;;;;;;;;;5093174;28;20210;-86
2023/08/31 10:46:50;;;;;;;2.00;0.97;;;;;;;;;;5092939;28;20197;-85
2023/08/31 10:49:19;;;;;;;2.10;1.00;;;;;;;;;;5093660;28;20201;-87
2023/08/31 10:51:48;;;;;;;3.77;1.30;;;;;;;;;;5093722;28;20217;-85
2023/08/31 10:54:23;;;;;;;4.93;1.40;;;;;;;;;;5093995;28;20260;-85
2023/08/31 10:57:03;;;;;;;7.47;2.23;;;;;;;;;;5093469;28;20206;-86
2023/08/31 10:59:48;;;;;;;3.03;1.40;;;;;;;;;;5093259;28;20205;-86
2023/08/31 11:02:32;;;;;;;1.20;0.70;;;;;;;;;;5093546;28;20196;-86
2023/08/31 11:05:18;;;;;;;2.93;0.80;;;;;;;;;;5092987;28;20235;-86
2023/08/31 11:07:52;;;;;;;4.07;2.00;;;;;;;;;;5092338;28;20200;-86
2023/08/31 11:10:23;;;;;;;5.30;1.27;;;;;;;;;;5093003;28;20229;-87
2023/08/31 11:12:56;;;;;;;3.17;0.97;;;;;;;;;;5092775;28;20217;-86
2023/08/31 11:15:26;;;;;;;3.27;1.20;;;;;;;;;;5092087;28;20229;-86
2023/08/31 11:17:55;;;;;;;3.50;1.70;;;;;;;;;;5093518;28;20210;-87
2023/08/31 11:20:27;;;;;;;2.27;1.07;;;;;;;;;;5093165;28;20202;-86
2023/08/31 11:22:57;;;;;;;4.17;1.70;;;;;;;;;;5092660;28;20294;-86
2023/08/31 11:25:25;;;;;;;3.50;1.17;;;;;;;;;;5092765;28;20198;-86
2023/08/31 11:27:56;;;;;;;3.23;1.20;;;;;;;;;;5092820;28;20239;-86
2023/08/31 11:30:26;;;;;;;0.80;0.80;;;;;;;;;;5092323;28;20199;-86
2023/08/31 11:32:55;;;;;;;4.43;1.27;;;;;;;;;;5092032;28;20241;-86
2023/08/31 11:35:24;;;;;;;1.20;1.10;;;;;;;;;;5092425;28;20202;-87
2023/08/31 11:37:53;;;;;;;1.90;1.20;;;;;;;;;;5092682;28;20226;-86
2023/08/31 11:40:22;;;;;;;0.80;0.80;;;;;;;;;;5092606;28;20211;-86
2023/08/31 11:42:50;;;;;;;2.53;1.27;;;;;;;;;;5091803;28;20204;-87
2023/08/31 11:45:25;;;;;;;1.70;1.03;;;;;;;;;;5092372;28;20227;-87
2023/08/31 11:47:55;;;;;;;5.73;1.73;;;;;;;;;;5092318;28;20198;-87
2023/08/31 11:50:25;;;;;;;2.97;1.57;;;;;;;;;;5092585;28;20236;-87
2023/08/31 11:52:55;;;;;;;2.73;0.63;;;;;;;;;;5091793;28;20262;-87
2023/08/31 11:55:24;;;;;;;5.80;1.60;;;;;;;;;;5092197;28;20194;-87
2023/08/31 11:57:54;;;;;;;0.80;0.80;;;;;;;;;;5092158;28;20209;-87
2023/08/31 12:00:25;;;;;;;5.43;1.73;;;;;;;;;;5091417;28;20218;-86
2023/08/31 12:02:59;;;;;;;2.83;1.37;;;;;;;;;;5099836;28;20210;-87
2023/08/31 12:05:28;;;;;;;2.60;1.07;;;;;;;;;;5115471;28;20226;-88
2023/08/31 12:07:57;;;;;;;1.27;0.90;;;;;;;;;;5111166;28;20235;-88
2023/08/31 12:10:26;;;;;;;3.90;1.83;;;;;;;;;;5118460;28;20208;-88
2023/08/31 12:12:56;;;;;;;2.53;0.67;;;;;;;;;;5104332;28;20213;-88
2023/08/31 12:15:31;;;;;;;2.30;0.80;;;;;;;;;;5097096;28;20202;-88
2023/08/31 12:18:00;;;;;;;0.73;0.70;;;;;;;;;;5097306;28;20234;-88
2023/08/31 12:20:32;;;;;;;4.60;1.13;;;;;;;;;;5106174;28;20207;-88
2023/08/31 12:23:03;;;;;;;1.00;0.90;;;;;;;;;;5106807;28;20210;-88
2023/08/31 12:25:31;;;;;;;1.33;1.17;;;;;;;;;;5105083;28;20204;-87
2023/08/31 12:28:00;;;;;;;1.90;0.93;;;;;;;;;;5101592;28;20191;-87
2023/08/31 12:30:31;;;;;;;2.20;1.27;;;;;;;;;;5107728;28;20214;-87
2023/08/31 12:32:59;;;;;;;5.30;1.23;;;;;;;;;;5101878;28;20243;-88
2023/08/31 12:35:30;;;;;;;4.23;1.10;;;;;;;;;;5114954;28;20207;-88
2023/08/31 12:37:59;;;;;;;2.93;1.13;;;;;;;;;;5118586;27;20250;-87
2023/08/31 12:40:27;;;;;;;1.03;0.83;;;;;;;;;;5117030;28;20197;-88
2023/08/31 12:43:01;;;;;;;2.70;1.23;;;;;;;;;;5106632;28;20216;-87
2023/08/31 12:45:32;;;;;;;0.87;0.87;;;;;;;;;;5097764;28;20262;-87
2023/08/31 12:48:01;;;;;;;4.00;1.00;;;;;;;;;;5097215;28;20195;-87
2023/08/31 12:50:33;;;;;;;3.50;1.07;;;;;;;;;;5097777;28;20197;-87
2023/08/31 12:53:03;;;;;;;0.80;0.80;;;;;;;;;;5097281;28;20472;-87
2023/08/31 12:55:32;;;;;;;0.70;0.70;;;;;;;;;;5097938;28;20206;-87
2023/08/31 12:58:00;;;;;;;4.70;1.70;;;;;;;;;;5097930;28;20210;-87
2023/08/31 13:00:30;;;;;;;3.23;1.10;;;;;;;;;;5097238;28;20297;-87
2023/08/31 13:02:59;;;;;;;0.30;0.30;;;;;;;;;;5096517;28;20223;-87
2023/08/31 13:05:28;;;;;;;0.70;0.70;;;;;;;;;;5096858;28;20198;-87
2023/08/31 13:07:57;;;;;;;2.43;1.43;;;;;;;;;;5097285;28;20195;-87
2023/08/31 13:10:26;;;;;;;1.00;0.50;;;;;;;;;;5096491;28;20205;-87
2023/08/31 13:12:55;;;;;;;2.33;1.10;;;;;;;;;;5096999;28;20224;-87
2023/08/31 13:15:24;;;;;;;1.37;0.80;;;;;;;;;;5097062;28;20197;-87
2023/08/31 13:17:54;;;;;;;0.97;0.70;;;;;;;;;;5096102;28;20294;-87
2023/08/31 13:20:23;;;;;;;3.20;1.33;;;;;;;;;;5094923;28;20199;-84
2023/08/31 13:22:51;;;;;;;1.47;0.63;;;;;;;;;;5093349;28;20202;-84
2023/08/31 13:25:20;;;;;;;3.47;1.10;;;;;;;;;;5093402;28;20258;-84
2023/08/31 13:27:50;;;;;;;1.30;0.73;;;;;;;;;;5092908;28;20279;-84
2023/08/31 13:30:19;;;;;;;1.07;0.93;;;;;;;;;;5093426;28;20244;-84
2023/08/31 13:32:48;;;;;;;3.07;1.10;;;;;;;;;;5094023;28;20318;-84
2023/08/31 13:35:18;;;;;;;1.00;1.00;;;;;;;;;;5093507;28;20220;-86
2023/08/31 13:37:46;;;;;;;0.73;0.60;;;;;;;;;;5093449;28;20283;-85
2023/08/31 13:40:15;;;;;;;1.40;0.93;;;;;;;;;;5093916;28;20215;-84
2023/08/31 13:42:54;;;;;;;0.97;0.70;;;;;;;;;;5093734;28;20197;-84
2023/08/31 13:45:23;;;;;;;2.53;0.93;;;;;;;;;;5093486;28;20311;-84
2023/08/31 13:47:52;;;;;;;1.20;0.73;;;;;;;;;;5093308;28;20203;-84
2023/08/31 13:50:22;;;;;;;2.03;1.63;;;;;;;;;;5093723;28;20195;-85
2023/08/31 13:52:51;;;;;;;1.23;0.73;;;;;;;;;;5093752;28;20240;-84
2023/08/31 13:55:20;;;;;;;4.70;0.77;;;;;;;;;;5093301;28;20453;-84
2023/08/31 13:57:48;;;;;;;1.33;1.00;;;;;;;;;;5093708;28;20212;-83
2023/08/31 14:00:20;;;;;;;0.60;0.60;;;;;;;;;;5093554;28;20211;-85
2023/08/31 14:02:49;;;;;;;3.60;1.70;;;;;;;;;;5093835;28;20278;-84
2023/08/31 14:05:18;;;;;;;0.70;0.70;;;;;;;;;;5088699;28;20226;-84
2023/08/31 14:07:48;;;;;;;0.40;0.40;;;;;;;;;;5093337;28;20202;-84
2023/08/31 14:10:17;;;;;;;0.50;0.50;;;;;;;;;;5093559;28;20223;-85
2023/08/31 14:12:48;;;;;;;0.70;0.70;;;;;;;;;;5093475;28;20202;-84
2023/08/31 14:15:16;;;;;;;0.83;0.60;;;;;;;;;;5092778;28;20260;-84
2023/08/31 14:17:45;;;;;;;0.53;0.53;;;;;;;;;;5094043;28;20213;-84
2023/08/31 14:20:14;;;;;;;0.90;0.90;;;;;;;;;;5093825;28;20215;-84
2023/08/31 14:22:45;;;;;;;3.23;1.13;;;;;;;;;;5093269;28;20192;-84
2023/08/31 14:25:15;;;;;;;2.60;0.90;;;;;;;;;;5093083;28;20200;-84
2023/08/31 14:27:44;;;;;;;1.60;1.07;;;;;;;;;;5093149;28;20200;-84
2023/08/31 14:30:13;;;;;;;1.60;0.80;;;;;;;;;;5092816;28;20200;-84
2023/08/31 14:32:42;;;;;;;1.27;0.97;;;;;;;;;;5092689;28;20208;-84
2023/08/31 14:35:11;;;;;;;0.83;0.80;;;;;;;;;;5092162;28;20285;-84
2023/08/31 14:37:39;;;;;;;0.50;0.50;;;;;;;;;;5092241;28;20220;-84
2023/08/31 14:40:10;;;;;;;6.80;0.97;;;;;;;;;;5091929;28;20198;-84
2023/08/31 14:42:41;;;;;;;1.03;0.60;;;;;;;;;;5092418;28;20205;-85
2023/08/31 14:45:10;;;;;;;0.40;0.40;;;;;;;;;;5092096;28;20289;-85
2023/08/31 14:47:38;;;;;;;0.80;0.80;;;;;;;;;;5092491;28;20206;-86
2023/08/31 14:50:07;;;;;;;2.13;1.27;;;;;;;;;;5091952;28;20291;-85
2023/08/31 14:52:36;;;;;;;1.13;1.03;;;;;;;;;;5092385;28;20295;-85
2023/08/31 14:55:05;;;;;;;1.07;0.73;;;;;;;;;;5091900;28;20217;-85
2023/08/31 14:57:33;;;;;;;1.40;1.20;;;;;;;;;;5091903;28;20195;-85